Latest Weather Observations for Combienbar

IDV60801

Issued at 4:05 pm EST Monday 28 July 2014 (issued every 30 minutes, with the page automatically refreshed every 10 minutes)

About weather observations | Map of weather stations | Latest weather observations for VIC | Other Formats
Station Details ID: 084143 Name: COMBIENBAR AWS Lat: -37.34 Lon: 149.02 Height: 640.0 m
Data from the previous 72 hours. | See also: Recent months at Combienbar
Date/Time
EST
Temp
°C
App
Temp
°C
Dew
Point
Rel
Hum
%
Delta-T
°C
Wind Press
QNH
hPa
Press
MSL
hPa
Rain
since 9 am
mm
Dir
 
Spd
km/h
Gust
km/h
Spd
kts
Gust
kts
28/04:00pm 12.6 10.2 1.9 48 4.8 NNW 4 11 2 6 1014.4 1014.9 0.0
28/03:30pm 13.8 11.4 2.4 46 5.2 NNW 4 9 2 5 1014.9 - 0.0
28/03:00pm 14.2 11.5 2.5 45 5.4 NNW 6 15 3 8 1014.8 1015.3 0.0
28/02:30pm 14.6 11.8 2.2 43 5.7 NNW 6 15 3 8 1015.0 - 0.0
28/02:00pm 14.3 10.1 1.6 42 5.7 NW 13 24 7 13 1015.1 1015.6 0.0
28/01:30pm 14.7 11.6 1.3 40 6.0 WNW 7 22 4 12 1015.2 - 0.0
28/01:00pm 14.1 10.6 1.4 42 5.7 WNW 9 22 5 12 1015.4 1015.9 0.0
28/12:30pm 14.0 9.8 1.6 43 5.6 WNW 13 30 7 16 1015.9 - 0.0
28/12:00pm 13.9 10.5 1.9 44 5.4 NW 9 22 5 12 1016.5 1017.0 0.0
28/11:30am 13.5 9.8 2.4 47 5.1 NW 11 22 6 12 1016.8 - 0.0
28/11:00am 13.6 10.4 2.8 48 5.0 NNW 9 20 5 11 1017.4 1018.0 0.0
28/10:30am 12.4 8.2 1.4 47 4.9 NW 13 28 7 15 1017.7 - 0.0
28/10:00am 11.9 6.9 1.3 48 4.6 NW 17 32 9 17 1017.7 1018.3 0.0
28/09:30am 11.1 6.4 1.1 50 4.3 NNW 15 32 8 17 1018.1 - 0.0
28/09:00am 10.5 6.1 0.3 49 4.3 NW 13 20 7 11 1018.2 1018.7 0.0
28/08:30am 9.8 5.7 -0.4 49 4.2 WNW 11 20 6 11 1018.2 - 0.0
28/08:00am 9.2 5.5 0.1 53 3.8 NW 9 19 5 10 1018.5 1019.0 0.0
28/07:30am 8.6 4.5 0.1 55 3.5 WNW 11 26 6 14 1018.5 - 0.0
28/07:00am 8.8 4.7 -0.5 52 3.8 WNW 11 28 6 15 1018.5 1019.0 0.0
28/06:30am 8.8 4.7 -0.5 52 3.8 WNW 11 20 6 11 1018.4 - 0.0
28/06:00am 8.5 4.4 -0.5 53 3.7 NW 11 22 6 12 1018.2 1018.7 0.0
28/05:30am 8.8 5.0 -0.8 51 3.9 NW 9 19 5 10 1018.1 - 0.0
28/05:00am 8.8 5.3 -1.0 50 3.9 NW 7 15 4 8 1018.2 1018.7 0.0
28/04:30am 9.0 5.5 -1.1 49 4.1 NW 7 15 4 8 1018.4 - 0.0
28/04:00am 8.8 5.3 -1.0 50 3.9 W 7 17 4 9 1018.4 1018.9 0.0
28/03:30am 8.7 5.4 -1.1 50 3.9 NW 6 11 3 6 1018.5 - 0.0
28/03:00am 9.4 5.9 -1.6 46 4.4 NW 7 26 4 14 1018.6 1019.2 0.0
28/02:30am 8.8 5.9 -1.3 49 4.0 WSW 4 13 2 7 1018.8 - 0.0
28/02:00am 9.1 5.8 -1.6 47 4.3 NW 6 11 3 6 1019.0 1019.6 0.0
28/01:30am 8.9 6.7 -1.5 48 4.2 CALM 0 6 0 3 1019.2 - 0.0
28/01:00am 8.9 6.7 -1.2 49 4.0 CALM 0 4 0 2 1019.6 1020.1 0.0
28/12:30am 8.8 6.3 -0.8 51 3.9 W 2 9 1 5 1019.8 - 0.0
28/12:00am 8.2 5.9 2.7 68 2.4 W 4 13 2 7 1019.8 1020.3 0.0
 
Date/Time
EST
Temp
°C
App
Temp
°C
Dew
Point
Rel
Hum
%
Delta-T
°C
Wind Press
QNH
hPa
Press
MSL
hPa
Rain
since 9 am
mm
Dir
 
Spd
km/h
Gust
km/h
Spd
kts
Gust
kts
27/11:30pm 8.4 5.7 0.6 58 3.3 W 4 9 2 5 1020.1 - 0.0
27/11:00pm 8.0 6.1 2.7 69 2.3 S 2 15 1 8 1020.1 1020.7 0.0
27/10:30pm 7.3 5.4 4.8 84 1.1 NNE 4 7 2 4 1019.8 - 0.0
27/10:00pm 7.1 6.3 6.4 95 0.3 CALM 0 2 0 1 1020.7 1021.3 0.0
27/09:30pm 7.3 6.5 6.6 95 0.3 CALM 0 0 0 0 1021.2 - 0.0
27/09:00pm 7.7 7.0 7.0 95 0.3 CALM 0 0 0 0 1021.7 1022.3 0.0
27/08:30pm 7.4 6.6 6.5 94 0.4 CALM 0 0 0 0 1021.4 - 0.0
27/08:00pm 7.5 6.5 5.6 88 0.9 CALM 0 0 0 0 1021.5 1022.1 0.0
27/07:30pm 8.1 7.1 5.6 84 1.2 CALM 0 0 0 0 1021.2 - 0.0
27/07:00pm 9.2 8.2 5.8 79 1.6 CALM 0 0 0 0 1020.8 1021.4 0.0
27/06:30pm 9.1 8.1 5.7 79 1.6 CALM 0 0 0 0 1020.6 - 0.0
27/06:00pm 9.3 8.3 5.7 78 1.7 WSW 0 0 0 0 1020.5 1021.1 0.0
27/05:30pm 9.5 8.5 5.5 76 1.9 CALM 0 0 0 0 1020.0 - 0.0
27/05:00pm 9.8 8.8 5.8 76 1.9 CALM 0 0 0 0 1020.0 1020.6 0.0
27/04:30pm 10.5 9.6 5.9 73 2.2 CALM 0 0 0 0 1020.2 - 0.0
27/04:00pm 11.1 10.2 6.0 71 2.5 CALM 0 0 0 0 1020.3 1020.9 0.0
27/03:30pm 12.1 11.4 7.0 71 2.5 CALM 0 0 0 0 1020.6 - 0.0
27/03:00pm 12.1 11.4 6.8 70 2.6 CALM 0 0 0 0 1020.9 1021.5 0.0
27/02:30pm 12.0 11.3 6.9 71 2.5 CALM 0 0 0 0 1020.8 - 0.0
27/02:00pm 12.1 11.1 5.5 64 3.2 CALM 0 4 0 2 1020.9 1021.5 0.0
27/01:30pm 11.8 10.8 5.7 66 2.9 CALM 0 2 0 1 1021.3 - 0.0
27/01:00pm 11.7 10.9 6.6 71 2.5 CALM 0 2 0 1 1021.8 1022.4 0.0
27/12:30pm 11.1 10.1 5.6 69 2.6 CALM 0 4 0 2 1022.4 - 0.0
27/12:00pm 10.5 9.2 5.9 73 2.2 SW 2 6 1 3 1022.9 1023.5 0.0
27/11:30am 11.2 10.5 7.1 76 2.0 CALM 0 4 0 2 1023.3 - 0.0
27/11:00am 10.1 8.8 6.1 76 1.9 SW 2 6 1 3 1023.7 1024.3 0.0
27/10:30am 10.4 9.3 6.9 79 1.7 SW 2 4 1 2 1023.9 - 0.0
27/10:00am 10.0 8.9 6.9 81 1.5 SW 2 6 1 3 1024.0 1024.7 0.0
27/09:30am 9.9 7.8 5.9 76 1.9 WSW 6 20 3 11 1024.0 - 0.0
27/09:00am 9.2 7.6 6.3 82 1.4 SW 4 9 2 5 1024.0 1024.7 1.2
27/08:30am 8.4 7.5 6.0 85 1.1 CALM 0 4 0 2 1023.9 - 1.2
27/08:00am 8.4 6.7 5.9 84 1.2 SW 4 9 2 5 1023.7 1024.3 1.2
27/07:30am 8.3 6.2 5.8 84 1.2 SW 6 11 3 6 1023.6 - 1.2
27/07:00am 8.0 6.7 6.0 87 0.9 SSW 2 7 1 4 1023.4 1024.0 1.2
27/06:30am 8.0 6.7 6.0 87 0.9 SSW 2 11 1 6 1023.0 - 1.2
27/06:00am 8.1 5.8 5.7 85 1.1 SW 7 13 4 7 1022.5 1023.2 1.2
27/05:30am 7.9 6.2 6.0 88 0.9 SSW 4 6 2 3 1022.5 - 1.2
27/05:00am 7.5 5.8 6.0 90 0.7 SSW 4 7 2 4 1022.5 1023.2 1.2
27/04:30am 8.0 6.3 6.0 87 0.9 SW 4 9 2 5 1022.5 - 1.2
27/04:00am 8.2 5.9 5.8 85 1.1 SW 7 17 4 9 1022.4 1023.0 1.2
27/03:30am 7.9 5.8 6.0 88 0.9 SSW 6 11 3 6 1022.4 - 1.2
27/03:00am 8.0 6.0 6.1 88 0.9 SW 6 11 3 6 1022.3 1022.9 1.2
27/02:30am 8.1 5.9 6.2 88 0.9 SW 7 24 4 13 1022.4 - 1.2
27/02:00am 8.1 5.9 6.4 89 0.8 SW 7 13 4 7 1022.5 1023.2 1.2
27/01:30am 7.9 5.9 6.4 90 0.7 SW 6 13 3 7 1022.5 - 1.2
27/01:00am 7.7 5.5 6.3 91 0.7 SW 7 19 4 10 1022.6 1023.3 1.2
27/12:30am 7.7 5.6 6.6 93 0.5 SW 7 15 4 8 1022.6 - 1.2
27/12:00am 7.4 6.3 6.7 95 0.3 SW 2 11 1 6 1022.9 1023.5 1.0
 
Date/Time
EST
Temp
°C
App
Temp
°C
Dew
Point
Rel
Hum
%
Delta-T
°C
Wind Press
QNH
hPa
Press
MSL
hPa
Rain
since 9 am
mm
Dir
 
Spd
km/h
Gust
km/h
Spd
kts
Gust
kts
26/11:30pm 7.7 6.2 6.8 94 0.4 SSW 4 11 2 6 1023.0 - 1.0
26/11:00pm 7.6 6.0 6.5 93 0.5 SW 4 7 2 4 1023.1 1023.7 1.0
26/10:30pm 8.0 6.4 6.3 89 0.8 SW 4 6 2 3 1023.0 - 0.6
26/10:00pm 7.8 6.6 6.6 92 0.6 SW 2 6 1 3 1023.0 1023.6 0.4
26/09:30pm 8.0 7.2 6.5 90 0.7 CALM 0 0 0 0 1023.1 - 0.2
26/09:00pm 8.5 7.2 6.1 85 1.1 SW 2 9 1 5 1022.7 1023.4 0.0
26/08:30pm 8.3 6.6 6.1 86 1.0 SW 4 7 2 4 1022.4 - 0.0
26/08:00pm 9.4 7.9 5.2 75 2.0 SW 2 7 1 4 1022.4 1023.0 0.0
26/07:30pm 9.2 7.3 4.8 74 2.0 SW 4 7 2 4 1022.2 - 0.0
26/07:00pm 8.6 6.6 4.4 75 1.9 SW 4 9 2 5 1022.2 1022.8 0.0
26/06:30pm 9.1 7.2 4.7 74 2.0 SW 4 11 2 6 1022.1 - 0.0
26/06:00pm 8.8 6.8 4.2 73 2.1 SW 4 7 2 4 1021.9 1022.5 0.0
26/05:30pm 8.7 7.1 4.7 76 1.8 SW 2 4 1 2 1021.6 - 0.0
26/05:00pm 8.8 7.7 5.0 77 1.8 CALM 0 0 0 0 1021.5 1022.1 0.0
26/04:30pm 9.0 7.8 4.8 75 1.9 CALM 0 0 0 0 1021.3 - 0.0
26/04:00pm 9.7 8.7 5.7 76 1.9 CALM 0 2 0 1 1021.2 1021.8 0.0
26/03:30pm 9.9 8.5 5.5 74 2.1 SW 2 9 1 5 1021.2 - 0.0
26/03:00pm 10.7 9.7 5.5 70 2.5 CALM 0 4 0 2 1021.0 1021.6 0.0
26/02:30pm 12.0 11.2 6.5 69 2.7 CALM 0 0 0 0 1020.7 - 0.0
26/02:00pm 12.1 11.4 7.0 71 2.5 CALM 0 0 0 0 1020.7 1021.3 0.0
26/01:30pm 11.2 10.2 5.7 69 2.6 CALM 0 0 0 0 1020.8 - 0.0
26/01:00pm 11.8 10.7 5.2 64 3.1 CALM 0 0 0 0 1020.9 1021.5 0.0
26/12:30pm 11.8 11.0 6.3 69 2.7 CALM 0 0 0 0 1021.4 - 0.0
26/12:00pm 12.8 11.2 4.3 56 4.0 WSW 2 7 1 4 1021.7 1022.3 0.0
26/11:30am 12.0 10.8 4.7 61 3.5 CALM 0 0 0 0 1022.1 - 0.0
26/11:00am 11.3 9.9 3.6 59 3.5 CALM 0 4 0 2 1022.5 1023.2 0.0
26/10:30am 10.6 9.4 4.5 66 2.8 CALM 0 4 0 2 1022.7 - 0.0
26/10:00am 10.6 9.0 4.3 65 2.9 SW 2 7 1 4 1022.9 1023.5 0.0
26/09:30am 10.8 9.4 3.6 61 3.3 CALM 0 7 0 4 1022.7 - 0.0
26/09:00am 10.7 8.9 3.3 60 3.3 WSW 2 13 1 7 1022.5 1023.2 0.0
26/08:30am 11.0 9.5 2.8 57 3.7 CALM 0 2 0 1 1022.2 - 0.0
26/08:00am 10.3 8.6 1.9 56 3.7 CALM 0 6 0 3 1021.9 1022.5 0.0
26/07:30am 9.8 8.1 1.9 58 3.4 CALM 0 0 0 0 1021.8 - 0.0
26/07:00am 9.2 7.5 1.6 59 3.3 CALM 0 0 0 0 1021.7 1022.3 0.0
26/06:30am 9.4 7.3 1.8 59 3.3 NE 2 9 1 5 1021.5 - 0.0
26/06:00am 9.6 6.8 1.8 58 3.4 WNW 6 11 3 6 1021.2 1021.8 0.0
26/05:30am 9.0 6.9 1.7 60 3.1 NNW 2 6 1 3 1020.9 - 0.0
26/05:00am 8.8 6.7 1.5 60 3.1 N 2 6 1 3 1020.6 1021.2 0.0
26/04:30am 9.6 6.7 1.5 57 3.5 NW 6 13 3 7 1020.6 - 0.0
26/04:00am 9.1 6.7 2.0 61 3.1 N 4 13 2 7 1020.5 1021.1 0.0
26/03:30am 9.7 7.6 1.8 58 3.4 WNW 2 4 1 2 1020.7 - 0.0
26/03:00am 9.4 7.7 2.0 60 3.2 CALM 0 0 0 0 1020.8 1021.4 0.0
26/02:30am 9.7 6.9 2.1 59 3.3 N 6 11 3 6 1021.0 - 0.0
26/02:00am 10.0 7.2 1.9 57 3.5 NNW 6 11 3 6 1021.3 1021.9 0.0
26/01:30am 9.5 7.5 2.4 61 3.1 SW 2 4 1 2 1021.3 - 0.0
26/01:00am 10.0 7.6 2.1 58 3.5 WSW 4 13 2 7 1021.0 1021.6 0.0
26/12:30am 10.2 7.8 2.3 58 3.5 WNW 4 13 2 7 1021.0 - 0.0
26/12:00am 10.1 8.1 2.5 59 3.4 WNW 2 7 1 4 1021.0 1021.6 0.0
 
Date/Time
EST
Temp
°C
App
Temp
°C
Dew
Point
Rel
Hum
%
Delta-T
°C
Wind Press
QNH
hPa
Press
MSL
hPa
Rain
since 9 am
mm
Dir
 
Spd
km/h
Gust
km/h
Spd
kts
Gust
kts
25/11:30pm 9.9 8.3 2.5 60 3.3 CALM 0 4 0 2 1021.2 - 0.0
25/11:00pm 10.1 8.4 2.0 57 3.5 CALM 0 4 0 2 1021.0 1021.6 0.0
25/10:30pm 11.1 8.1 2.2 54 4.0 NNW 7 15 4 8 1021.2 - 0.0
25/10:00pm 10.6 8.6 2.2 56 3.7 N 2 9 1 5 1021.0 1021.6 0.0
25/09:30pm 10.7 8.7 2.3 56 3.7 N 2 9 1 5 1021.4 - 0.0
25/09:00pm 10.9 9.2 2.0 54 3.9 CALM 0 4 0 2 1021.3 1021.9 0.0
25/08:30pm 11.2 8.4 2.2 54 4.0 NW 6 13 3 7 1020.9 - 0.0
25/08:00pm 11.6 8.6 2.1 52 4.2 NW 7 19 4 10 1020.8 1021.4 0.0
25/07:30pm 11.9 8.5 1.8 50 4.5 NNW 9 17 5 9 1020.6 - 0.0
25/07:00pm 11.7 8.3 1.9 51 4.3 N 9 22 5 12 1020.3 1020.9 0.0
25/06:30pm 11.8 8.4 2.0 51 4.4 N 9 19 5 10 1019.9 - 0.0
25/06:00pm 11.9 9.0 1.5 49 4.6 NNW 6 11 3 6 1019.4 1020.0 0.0
25/05:30pm 11.9 9.0 1.5 49 4.6 NNW 6 9 3 5 1019.2 - 0.0
25/05:00pm 11.9 9.8 1.8 50 4.5 N 2 7 1 4 1018.9 1019.5 0.0
25/04:30pm 12.9 10.0 1.3 45 5.1 NW 6 11 3 6 1018.7 - 0.0

Other Formats:

Comma delimited format used in spreadsheet applications
http://www.bom.gov.au/fwo/IDV60801/IDV60801.94914.axf

JavaScript Object Notation format (JSON) in row-major order
http://www.bom.gov.au/fwo/IDV60801/IDV60801.94914.json